createdAt,value
2022-09-03T00:01:57.943Z,100516.63
2022-09-03T00:04:53.141Z,100519.28
2022-09-03T00:07:47.259Z,100516.38
2022-09-03T00:10:45.031Z,100515.16
2022-09-03T00:13:38.080Z,100511.88
2022-09-03T00:16:31.320Z,100512.25
2022-09-03T00:19:21.782Z,100508.78
2022-09-03T00:22:12.198Z,100497.47
2022-09-03T00:25:01.502Z,100498.50
2022-09-03T00:27:55.145Z,100497.47
2022-09-03T00:30:44.323Z,100491.06
2022-09-03T00:33:35.421Z,100478.91
2022-09-03T00:36:30.248Z,100486.53
2022-09-03T00:39:21.707Z,100485.09
2022-09-03T00:42:23.631Z,100483.84
2022-09-03T00:45:20.325Z,100473.78
2022-09-03T00:48:18.527Z,100472.09
2022-09-03T00:51:16.986Z,100485.91
2022-09-03T00:54:09.807Z,100480.38
2022-09-03T00:57:10.525Z,100492.53
2022-09-03T01:00:06.071Z,100486.75
2022-09-03T01:03:07.886Z,100483.03
2022-09-03T01:06:11.116Z,100480.56
2022-09-03T01:09:12.167Z,100476.84
2022-09-03T01:12:03.195Z,100485.91
2022-09-03T01:15:00.162Z,100476.84
2022-09-03T01:17:59.241Z,100471.50
2022-09-03T01:20:56.024Z,100478.31
2022-09-03T01:23:58.324Z,100469.84
2022-09-03T01:27:01.374Z,100476.84
2022-09-03T01:29:55.559Z,100477.06
2022-09-03T01:32:48.606Z,100487.56
2022-09-03T01:35:41.441Z,100483.03
2022-09-03T01:38:36.484Z,100478.50
2022-09-03T01:41:59.031Z,100485.72
2022-09-03T01:45:36.116Z,100497.03
2022-09-03T01:48:44.265Z,100500.94
2022-09-03T01:51:33.847Z,100500.56
2022-09-03T01:54:33.003Z,100500.56
2022-09-03T01:57:37.540Z,100500.56
2022-09-03T02:00:26.918Z,100499.09
2022-09-03T02:03:16.028Z,100490.84
2022-09-03T02:06:07.737Z,100489.19
2022-09-03T02:08:56.224Z,100492.09
2022-09-03T02:11:46.931Z,100485.91
2022-09-03T02:14:36.171Z,100489.19
2022-09-03T02:17:24.767Z,100486.53
2022-09-03T02:20:20.035Z,100481.16
2022-09-03T02:23:09.971Z,100487.56
2022-09-03T02:25:59.810Z,100494.97
2022-09-03T02:28:48.428Z,100483.47
2022-09-03T02:31:37.063Z,100488.41
2022-09-03T02:34:25.610Z,100490.47
2022-09-03T02:37:15.365Z,100492.91
2022-09-03T02:40:09.191Z,100489.00
2022-09-03T02:42:57.849Z,100494.34
2022-09-03T02:45:49.342Z,100487.97
2022-09-03T02:48:38.010Z,100485.09
2022-09-03T02:51:26.666Z,100487.97
2022-09-03T02:54:20.229Z,100487.34
2022-09-03T02:57:12.279Z,100484.88
2022-09-03T03:00:00.763Z,100488.41
2022-09-03T03:02:50.025Z,100486.75
2022-09-03T03:05:44.958Z,100486.75
2022-09-03T03:08:35.101Z,100483.47
2022-09-03T03:11:24.066Z,100485.09
2022-09-03T03:14:14.319Z,100480.97
2022-09-03T03:17:02.957Z,100478.72
2022-09-03T03:19:51.714Z,100476.84
2022-09-03T03:22:40.185Z,100469.03
2022-09-03T03:25:28.723Z,100463.88
2022-09-03T03:28:19.029Z,100468.19
2022-09-03T03:31:09.647Z,100467.41
2022-09-03T03:34:00.008Z,100472.75
2022-09-03T03:36:48.506Z,100475.19
2022-09-03T03:39:37.232Z,100482.19
2022-09-03T03:42:26.030Z,100482.63
2022-09-03T03:45:14.536Z,100485.09
2022-09-03T03:48:04.889Z,100478.50
2022-09-03T03:50:55.960Z,100492.53
2022-09-03T03:53:44.448Z,100481.16
2022-09-03T03:56:33.043Z,100482.19
2022-09-03T03:59:21.610Z,100489.63
2022-09-03T04:02:10.189Z,100489.63
2022-09-03T04:05:00.319Z,100488.59
2022-09-03T04:07:48.785Z,100489.63
2022-09-03T04:10:37.873Z,100474.59
2022-09-03T04:13:27.137Z,100475.22
2022-09-03T04:16:18.184Z,100473.56
2022-09-03T04:19:07.178Z,100471.09
2022-09-03T04:21:57.113Z,100471.50
2022-09-03T04:24:46.319Z,100471.50
2022-09-03T04:27:34.853Z,100469.84
2022-09-03T04:30:23.447Z,100475.22
2022-09-03T04:33:16.383Z,100470.47
2022-09-03T04:36:09.786Z,100471.91
2022-09-03T04:39:01.690Z,100466.56
2022-09-03T04:41:52.704Z,100464.91
2022-09-03T04:44:41.377Z,100468.63
2022-09-03T04:47:29.905Z,100468.81
2022-09-03T04:50:18.805Z,100483.84
2022-09-03T04:53:07.922Z,100483.03
2022-09-03T04:55:58.224Z,100483.03
2022-09-03T04:58:47.044Z,100485.09
2022-09-03T05:01:43.461Z,100485.09
2022-09-03T05:04:31.905Z,100489.19
2022-09-03T05:07:21.021Z,100486.53
2022-09-03T05:10:13.059Z,100491.47
2022-09-03T05:13:03.911Z,100490.47
2022-09-03T05:15:52.396Z,100483.84
2022-09-03T05:18:42.431Z,100480.16
2022-09-03T05:21:31.184Z,100480.97
2022-09-03T05:24:20.084Z,100483.84
2022-09-03T05:27:08.568Z,100478.72
2022-09-03T05:29:58.446Z,100479.75
2022-09-03T05:32:46.925Z,100469.84
2022-09-03T05:35:35.422Z,100477.47
2022-09-03T05:38:23.995Z,100476.03
2022-09-03T05:41:14.608Z,100481.78
2022-09-03T05:44:04.066Z,100482.22
2022-09-03T05:46:53.981Z,100491.25
2022-09-03T05:49:42.491Z,100475.41
2022-09-03T05:52:30.966Z,100480.56
2022-09-03T05:55:19.642Z,100482.22
2022-09-03T05:58:08.371Z,100490.84
2022-09-03T06:00:56.943Z,100477.69
2022-09-03T06:03:47.911Z,100484.28
2022-09-03T06:06:38.889Z,100488.16
2022-09-03T06:09:27.487Z,100486.34
2022-09-03T06:12:16.010Z,100490.47
2022-09-03T06:15:05.773Z,100484.06
2022-09-03T06:17:54.444Z,100493.75
2022-09-03T06:20:44.336Z,100491.69
2022-09-03T06:23:34.017Z,100494.78
2022-09-03T06:26:25.315Z,100499.53
2022-09-03T06:29:14.073Z,100502.81
2022-09-03T06:32:05.049Z,100504.88
2022-09-03T06:34:53.582Z,100511.66
2022-09-03T06:37:44.197Z,100496.63
2022-09-03T06:40:33.176Z,100503.22
2022-09-03T06:43:21.789Z,100503.22
2022-09-03T06:46:12.296Z,100510.22
2022-09-03T06:49:01.245Z,100498.47
2022-09-03T06:51:49.800Z,100494.97
2022-09-03T06:54:39.639Z,100495.81
2022-09-03T06:57:28.181Z,100485.69
2022-09-03T07:00:17.746Z,100495.19
2022-09-03T07:03:07.224Z,100497.84
2022-09-03T07:05:55.764Z,100487.53
2022-09-03T07:08:46.257Z,100487.53
2022-09-03T07:11:36.711Z,100492.88
2022-09-03T07:14:25.611Z,100490.84
2022-09-03T07:17:16.569Z,100488.38
2022-09-03T07:20:05.605Z,100489.84
2022-09-03T07:22:57.532Z,100482.44
2022-09-03T07:25:46.128Z,100482.44
2022-09-03T07:28:39.947Z,100480.16
2022-09-03T07:31:36.145Z,100480.53
2022-09-03T07:34:26.567Z,100478.50
2022-09-03T07:37:15.868Z,100477.88
2022-09-03T07:40:05.145Z,100479.72
2022-09-03T07:43:04.512Z,100465.28
2022-09-03T07:45:55.635Z,100461.16
2022-09-03T07:48:45.317Z,100460.53
2022-09-03T07:51:35.831Z,100456.81
2022-09-03T07:54:27.384Z,100463.84
2022-09-03T07:57:16.003Z,100462.00
2022-09-03T08:00:05.800Z,100472.28
2022-09-03T08:02:56.182Z,100466.31
2022-09-03T08:05:44.788Z,100463.81
2022-09-03T08:08:35.661Z,100460.75
2022-09-03T08:11:25.102Z,100467.13
2022-09-03T08:14:15.449Z,100464.44
2022-09-03T08:17:03.980Z,100464.69
2022-09-03T08:19:54.008Z,100469.00
2022-09-03T08:22:43.908Z,100455.81
2022-09-03T08:25:33.932Z,100460.97
2022-09-03T08:28:23.407Z,100465.28
2022-09-03T08:31:14.101Z,100454.78
2022-09-03T08:34:06.680Z,100461.16
2022-09-03T08:36:56.857Z,100452.50
2022-09-03T08:39:45.426Z,100454.56
2022-09-03T08:42:44.379Z,100452.09
2022-09-03T08:45:33.719Z,100452.94
2022-09-03T08:48:25.900Z,100445.50
2022-09-03T08:51:17.194Z,100440.97
2022-09-03T08:54:08.714Z,100440.16
2022-09-03T08:56:57.733Z,100448.78
2022-09-03T08:59:46.428Z,100440.16
2022-09-03T09:02:41.614Z,100438.06
2022-09-03T09:05:40.207Z,100437.69
2022-09-03T09:08:35.138Z,100430.25
2022-09-03T09:11:33.525Z,100426.09
2022-09-03T09:14:30.586Z,100429.38
2022-09-03T09:17:42.974Z,100421.16
2022-09-03T09:20:37.973Z,100421.16
2022-09-03T09:23:29.508Z,100421.97
2022-09-03T09:26:19.632Z,100419.91
2022-09-03T09:29:13.817Z,100416.59
2022-09-03T09:32:02.611Z,100422.78
2022-09-03T09:34:54.595Z,100415.78
2022-09-03T09:37:51.643Z,100416.59
2022-09-03T09:40:44.965Z,100411.88
2022-09-03T09:43:36.096Z,100415.16
2022-09-03T09:46:29.724Z,100412.03
2022-09-03T09:49:32.024Z,100401.75
2022-09-03T09:52:22.244Z,100409.56
2022-09-03T09:55:12.848Z,100392.06
2022-09-03T09:58:14.036Z,100399.88
2022-09-03T10:01:13.080Z,100400.50
2022-09-03T10:04:10.978Z,100391.81
2022-09-03T10:07:03.590Z,100386.09
2022-09-03T10:10:08.887Z,100387.31
2022-09-03T10:13:01.735Z,100389.78
2022-09-03T10:15:53.065Z,100382.38
2022-09-03T10:18:45.131Z,100387.94
2022-09-03T10:21:42.896Z,100380.72
2022-09-03T10:24:40.992Z,100386.44
2022-09-03T10:27:30.100Z,100387.69
2022-09-03T10:30:20.906Z,100379.22
2022-09-03T10:33:13.370Z,100363.34
2022-09-03T10:36:13.754Z,100378.19
2022-09-03T10:39:07.648Z,100369.53
2022-09-03T10:42:07.437Z,100364.16
2022-09-03T10:45:03.723Z,100348.25
2022-09-03T10:48:06.552Z,100355.09
2022-09-03T10:50:57.049Z,100357.19
2022-09-03T10:54:01.411Z,100347.06
2022-09-03T10:56:56.677Z,100348.84
2022-09-03T10:59:57.179Z,100345.13
2022-09-03T11:03:06.226Z,100341.66
2022-09-03T11:06:00.920Z,100337.78
2022-09-03T11:08:55.666Z,100345.56
2022-09-03T11:11:47.398Z,100350.09
2022-09-03T11:14:40.332Z,100341.66
2022-09-03T11:17:33.425Z,100339.78
2022-09-03T11:20:23.754Z,100334.00
2022-09-03T11:23:14.868Z,100333.34
2022-09-03T11:26:06.849Z,100323.28
2022-09-03T11:28:59.547Z,100330.88
2022-09-03T11:31:57.898Z,100334.38
2022-09-03T11:34:48.821Z,100326.34
2022-09-03T11:37:49.101Z,100322.00
2022-09-03T11:40:40.015Z,100322.00
2022-09-03T11:43:30.197Z,100317.06
2022-09-03T11:46:30.569Z,100331.09
2022-09-03T11:49:30.273Z,100328.00
2022-09-03T11:52:28.374Z,100321.75
2022-09-03T11:55:31.834Z,100318.47
2022-09-03T11:58:28.573Z,100322.34
2022-09-03T12:01:19.238Z,100316.38
2022-09-03T12:04:09.751Z,100313.25
2022-09-03T12:07:17.622Z,100309.97
2022-09-03T12:10:20.323Z,100318.38
2022-09-03T12:13:20.300Z,100313.22
2022-09-03T12:16:25.630Z,100309.72
2022-09-03T12:19:22.137Z,100312.22
2022-09-03T12:22:16.605Z,100309.53
2022-09-03T12:25:11.444Z,100310.38
2022-09-03T12:28:03.943Z,100298.41
2022-09-03T12:30:53.662Z,100300.47
2022-09-03T12:33:43.062Z,100302.91
2022-09-03T12:36:38.798Z,100309.53
2022-09-03T12:42:40.066Z,100298.34
2022-09-03T12:46:09.889Z,100290.94
2022-09-03T12:48:39.721Z,100290.50
2022-09-03T12:51:55.254Z,100283.50
2022-09-03T12:54:51.897Z,100283.94
2022-09-03T12:57:43.669Z,100287.63
2022-09-03T13:00:34.081Z,100286.34
2022-09-03T13:03:26.581Z,100274.59
2022-09-03T13:06:16.534Z,100276.06
2022-09-03T13:09:07.476Z,100273.56
2022-09-03T13:11:59.188Z,100271.28
2022-09-03T13:14:52.490Z,100275.25
2022-09-03T13:18:06.334Z,100274.41
2022-09-03T13:21:08.022Z,100275.78
2022-09-03T13:24:07.344Z,100280.56
2022-09-03T13:27:08.375Z,100279.31
2022-09-03T13:30:09.145Z,100266.91
2022-09-03T13:33:01.967Z,100267.34
2022-09-03T13:35:53.797Z,100261.34
2022-09-03T13:38:45.594Z,100259.41
2022-09-03T13:41:37.634Z,100267.81
2022-09-03T13:44:40.724Z,100254.06
2022-09-03T13:47:33.115Z,100259.41
2022-09-03T13:50:22.549Z,100254.88
2022-09-03T13:53:16.761Z,100254.41
2022-09-03T13:56:15.716Z,100256.44
2022-09-03T13:59:09.760Z,100257.28
2022-09-03T14:02:12.896Z,100248.78
2022-09-03T14:05:07.601Z,100243.16
2022-09-03T14:08:08.635Z,100241.06
2022-09-03T14:11:02.808Z,100241.28
2022-09-03T14:14:18.623Z,100241.88
2022-09-03T14:17:14.293Z,100240.09
2022-09-03T14:20:06.806Z,100242.03
2022-09-03T14:22:58.567Z,100236.09
2022-09-03T14:25:54.505Z,100234.06
2022-09-03T14:28:51.241Z,100243.81
2022-09-03T14:31:53.365Z,100243.19
2022-09-03T14:34:53.935Z,100236.38
2022-09-03T14:38:26.930Z,100245.25
2022-09-03T14:41:38.612Z,100243.75
2022-09-03T14:44:45.735Z,100250.53
2022-09-03T14:47:44.670Z,100248.13
2022-09-03T14:50:45.739Z,100246.50
2022-09-03T14:54:01.460Z,100251.06
2022-09-03T14:56:54.353Z,100247.78
2022-09-03T15:00:07.998Z,100248.06
2022-09-03T15:03:32.169Z,100245.38
2022-09-03T15:06:31.641Z,100235.50
2022-09-03T15:09:27.683Z,100244.38
2022-09-03T15:12:21.195Z,100246.16
2022-09-03T15:15:15.448Z,100240.09
2022-09-03T15:18:13.426Z,100238.69
2022-09-03T15:21:06.655Z,100246.16
2022-09-03T15:24:06.827Z,100237.28
2022-09-03T15:27:01.418Z,100241.69
2022-09-03T15:29:59.673Z,100234.91
2022-09-03T15:32:53.635Z,100233.47
2022-09-03T15:35:53.462Z,100237.06
2022-09-03T15:38:47.019Z,100230.13
2022-09-03T15:41:42.255Z,100231.97
2022-09-03T15:44:38.207Z,100233.06
2022-09-03T15:47:50.788Z,100236.31
2022-09-03T15:50:52.751Z,100237.41
2022-09-03T15:53:50.964Z,100238.91
2022-09-03T15:56:47.271Z,100246.28
2022-09-03T15:59:41.083Z,100237.66
2022-09-03T16:02:34.455Z,100239.28
2022-09-03T16:05:29.012Z,100248.38
2022-09-03T16:08:21.758Z,100244.66
2022-09-03T16:11:14.647Z,100250.88
2022-09-03T16:14:10.372Z,100259.75
2022-09-03T16:17:03.458Z,100245.50
2022-09-03T16:19:56.646Z,100249.22
2022-09-03T16:22:48.903Z,100250.47
2022-09-03T16:25:48.012Z,100248.38
2022-09-03T16:28:39.233Z,100242.56
2022-09-03T16:31:51.267Z,100238.38
2022-09-03T16:34:50.328Z,100242.94
2022-09-03T16:37:47.584Z,100239.59
2022-09-03T16:40:42.326Z,100243.75
2022-09-03T16:43:41.525Z,100245.69
2022-09-03T16:46:37.812Z,100246.72
2022-09-03T16:49:38.544Z,100252.09
2022-09-03T16:52:38.610Z,100251.25
2022-09-03T16:55:36.721Z,100243.88
2022-09-03T16:58:33.295Z,100239.16
2022-09-03T17:01:46.291Z,100238.94
2022-09-03T17:04:51.810Z,100246.22
2022-09-03T17:08:09.254Z,100246.91
2022-09-03T17:11:06.835Z,100242.34
2022-09-03T17:14:07.389Z,100240.25
2022-09-03T17:17:06.424Z,100242.34
2022-09-03T17:19:59.479Z,100240.72
2022-09-03T17:23:00.559Z,100241.16
2022-09-03T17:25:53.755Z,100238.69
2022-09-03T17:28:51.101Z,100234.38
2022-09-03T17:31:51.361Z,100243.25
2022-09-03T17:34:48.725Z,100239.72
2022-09-03T17:37:50.276Z,100251.28
2022-09-03T17:40:44.362Z,100249.00
2022-09-03T17:43:37.215Z,100249.25
2022-09-03T17:46:31.938Z,100249.47
2022-09-03T17:49:23.329Z,100253.38
2022-09-03T17:52:23.654Z,100257.31
2022-09-03T17:55:15.580Z,100252.38
2022-09-03T17:58:11.513Z,100259.22
2022-09-03T18:01:07.750Z,100260.25
2022-09-03T18:03:58.925Z,100260.25
2022-09-03T18:06:57.333Z,100270.38
2022-09-03T18:09:53.785Z,100273.06
2022-09-03T18:12:59.813Z,100269.78
2022-09-03T18:15:57.387Z,100273.69
2022-09-03T18:18:47.891Z,100284.22
2022-09-03T18:21:56.428Z,100284.63
2022-09-03T18:25:05.363Z,100297.41
2022-09-03T18:28:16.650Z,100301.75
2022-09-03T18:31:24.371Z,100305.28
2022-09-03T18:34:30.621Z,100306.34
2022-09-03T18:37:40.879Z,100305.69
2022-09-03T18:40:52.813Z,100307.78
2022-09-03T18:44:08.615Z,100306.97
2022-09-03T18:48:01.523Z,100311.94
2022-09-03T18:50:49.371Z,100312.75
2022-09-03T18:54:02.451Z,100308.06
2022-09-03T18:57:14.682Z,100313.59
2022-09-03T19:00:29.204Z,100314.44
2022-09-03T19:03:54.427Z,100310.72
2022-09-03T19:07:07.930Z,100313.59
2022-09-03T19:10:20.552Z,100325.16
2022-09-03T19:13:38.141Z,100318.75
2022-09-03T19:16:54.428Z,100323.09
2022-09-03T19:20:09.661Z,100323.09
2022-09-03T19:23:15.995Z,100322.66
2022-09-03T19:26:27.808Z,100324.72
2022-09-03T19:29:49.114Z,100327.16
2022-09-03T19:33:04.705Z,100328.22
2022-09-03T19:36:19.663Z,100333.81
2022-09-03T19:39:39.333Z,100339.16
2022-09-03T19:43:03.923Z,100336.06
2022-09-03T19:46:15.845Z,100339.16
2022-09-03T19:49:28.858Z,100339.56
2022-09-03T19:52:46.290Z,100341.63
2022-09-03T19:55:55.144Z,100342.91
2022-09-03T19:59:04.085Z,100346.38
2022-09-03T20:02:10.831Z,100348.25
2022-09-03T20:05:20.211Z,100345.34
2022-09-03T20:08:26.900Z,100354.44
2022-09-03T20:11:20.091Z,100364.34
2022-09-03T20:14:16.691Z,100361.03
2022-09-03T20:17:15.486Z,100365.56
2022-09-03T20:20:17.965Z,100373.00
2022-09-03T20:23:14.698Z,100370.31
2022-09-03T20:26:25.081Z,100371.38
2022-09-03T20:29:33.384Z,100379.59
2022-09-03T20:32:34.392Z,100381.84
2022-09-03T20:35:32.980Z,100383.28
2022-09-03T20:38:30.915Z,100385.97
2022-09-03T20:41:25.161Z,100380.81
2022-09-03T20:44:35.918Z,100387.44
2022-09-03T20:47:39.166Z,100383.72
2022-09-03T20:50:43.690Z,100386.59
2022-09-03T20:53:43.865Z,100387.84
2022-09-03T20:56:35.210Z,100394.81
2022-09-03T20:59:30.867Z,100395.25
2022-09-03T21:02:26.194Z,100391.34
2022-09-03T21:05:19.087Z,100392.38
2022-09-03T21:08:18.165Z,100393.63
2022-09-03T21:11:14.424Z,100391.53
2022-09-03T21:14:14.697Z,100391.53
2022-09-03T21:17:30.978Z,100391.16
2022-09-03T21:20:26.959Z,100387.22
2022-09-03T21:23:21.953Z,100387.22
2022-09-03T21:26:16.719Z,100389.91
2022-09-03T21:29:09.495Z,100394.81
2022-09-03T21:32:03.124Z,100394.81
2022-09-03T21:34:57.729Z,100400.19
2022-09-03T21:37:52.575Z,100398.16
2022-09-03T21:40:46.803Z,100402.06
2022-09-03T21:43:39.009Z,100404.31
2022-09-03T21:46:31.067Z,100401.88
2022-09-03T21:49:24.023Z,100408.22
2022-09-03T21:52:15.731Z,100409.91
2022-09-03T21:55:05.510Z,100412.56
2022-09-03T21:58:05.661Z,100411.75
2022-09-03T22:00:57.418Z,100413.56
2022-09-03T22:03:45.916Z,100416.25
2022-09-03T22:06:40.449Z,100423.28
2022-09-03T22:09:34.992Z,100420.19
2022-09-03T22:12:28.444Z,100422.84
2022-09-03T22:15:20.080Z,100416.47
2022-09-03T22:18:17.466Z,100418.53
2022-09-03T22:21:13.722Z,100419.75
2022-09-03T22:24:10.307Z,100415.44
2022-09-03T22:27:03.314Z,100420.78
2022-09-03T22:29:58.022Z,100417.06
2022-09-03T22:32:55.012Z,100415.44
2022-09-03T22:35:53.615Z,100415.44
2022-09-03T22:39:11.743Z,100415.44
2022-09-03T22:42:10.402Z,100410.50
2022-09-03T22:45:14.615Z,100406.78
2022-09-03T22:48:23.483Z,100415.63
2022-09-03T22:51:12.693Z,100417.50
2022-09-03T22:54:12.541Z,100417.50
2022-09-03T22:57:02.957Z,100417.94
2022-09-03T22:59:57.422Z,100416.06
2022-09-03T23:02:47.556Z,100415.03
2022-09-03T23:05:41.829Z,100413.56
2022-09-03T23:08:34.022Z,100424.28
2022-09-03T23:11:25.309Z,100429.44
2022-09-03T23:14:16.591Z,100430.06
2022-09-03T23:17:08.248Z,100421.63
2022-09-03T23:22:59.471Z,100415.25
2022-09-03T23:25:51.688Z,100421.22
2022-09-03T23:28:43.893Z,100413.38
2022-09-03T23:31:32.581Z,100413.56
2022-09-03T23:34:21.491Z,100417.28
2022-09-03T23:37:34.486Z,100419.97
2022-09-03T23:40:35.679Z,100425.13
2022-09-03T23:44:03.123Z,100426.97
2022-09-03T23:46:59.132Z,100424.94
2022-09-03T23:49:57.940Z,100426.97
2022-09-03T23:53:13.643Z,100422.03
2022-09-03T23:56:12.683Z,100423.69
2022-09-03T23:59:08.090Z,100421.84
